Time;durP1;ratioP1;P1;durP2;ratioP2;P2;SDS_P1;SDS_P2;PMS_P1;PMS_P2;Temp;Humidity;BMP_temperature;BMP_pressure;BME280_temperature;BME280_humidity;BME280_pressure;Samples;Min_cycle;Max_cycle;Signal;HPM_P1;HPM_P2
2023/09/15 00:00:33;;;;;;;;;;;;;;;-144.99;100.00;52325.81;4999460;28;20383;-75
2023/09/15 00:03:00;;;;;;;;;;;;;;;-144.99;100.00;52333.94;5006365;28;19940;-75
2023/09/15 00:05:28;;;;;;;;;;;;;;;-144.99;100.00;52289.13;4999106;28;20039;-75
2023/09/15 00:07:55;;;;;;;;;;;;;;;-144.99;100.00;52305.41;4998343;28;19965;-74
2023/09/15 00:10:22;;;;;;;;;;;;;;;-144.99;100.00;52338.03;4991669;28;19949;-76
2023/09/15 00:12:48;;;;;;;;;;;;;;;-144.99;100.00;52317.66;5008502;28;20012;-78
2023/09/15 00:15:15;;;;;;;;;;;;;;;-144.99;100.00;52346.19;5014758;28;20462;-77
2023/09/15 00:17:42;;;;;;;;;;;;;;;-144.99;100.00;52309.50;5008364;28;19955;-76
2023/09/15 00:20:13;;;;;;;;;;;;;;;-144.99;100.00;52336.00;5007772;28;20045;-79
2023/09/15 00:22:40;;;;;;;;;;;;;;;-144.99;100.00;52340.06;4998241;28;20321;-78
2023/09/15 00:25:08;;;;;;;;;;;;;;;-144.99;100.00;52346.19;5001297;28;19948;-75
2023/09/15 00:27:34;;;;;;;;;;;;;;;-144.99;100.00;52315.59;5001563;28;19968;-74
2023/09/15 00:30:00;;;;;;;;;;;;;;;-144.99;100.00;52297.25;5001632;28;19948;-74
2023/09/15 00:32:27;;;;;;;;;;;;;;;-144.99;100.00;52321.72;5000249;28;19991;-74
2023/09/15 00:34:53;;;;;;;;;;;;;;;-144.99;100.00;52301.34;4993626;28;19982;-78
2023/09/15 00:37:21;;;;;;;;;;;;;;;-144.99;100.00;52346.19;5013173;28;19977;-76
2023/09/15 00:39:47;;;;;;;;;;;;;;;-144.99;100.00;52293.19;5024573;28;19960;-78
2023/09/15 00:42:14;;;;;;;;;;;;;;;-144.99;100.00;52305.41;5002696;28;20044;-75
2023/09/15 00:44:40;;;;;;;;;;;;;;;-144.99;100.00;52309.50;5000301;28;20037;-76
2023/09/15 00:47:07;;;;;;;;;;;;;;;-144.99;100.00;52333.94;5001744;28;22062;-75
2023/09/15 00:49:33;;;;;;;;;;;;;;;-144.99;100.00;52342.09;5006576;28;19939;-77
2023/09/15 00:52:00;;;;;;;;;;;;;;;-144.99;100.00;52307.47;5008139;28;20014;-74
2023/09/15 00:54:28;;;;;;;;;;;;;;;-144.99;100.00;52360.44;4998916;28;20315;-74
2023/09/15 00:56:56;;;;;;;;;;;;;;;-144.99;100.00;52317.66;4996500;28;20368;-75
2023/09/15 00:59:22;;;;;;;;;;;;;;;-144.99;100.00;52364.53;5003348;28;19949;-75
2023/09/15 01:01:49;;;;;;;;;;;;;;;-144.99;100.00;52329.88;4993184;28;19944;-76
2023/09/15 01:04:17;;;;;;;;;;;;;;;-144.99;100.00;52354.34;5000728;28;19949;-74
2023/09/15 01:06:44;;;;;;;;;;;;;;;-144.99;100.00;52358.41;5003840;28;19970;-76
2023/09/15 01:09:11;;;;;;;;;;;;;;;-144.99;100.00;52366.56;5007461;28;20142;-76
2023/09/15 01:11:38;;;;;;;;;;;;;;;-144.99;100.00;52354.34;5007775;28;20443;-75
2023/09/15 01:14:05;;;;;;;;;;;;;;;-144.99;100.00;52329.88;5004567;28;19990;-76
2023/09/15 01:16:34;;;;;;;;;;;;;;;-144.99;100.00;52354.34;5005121;28;20004;-74
2023/09/15 01:19:07;;;;;;;;;;;;;;;-144.99;100.00;52329.88;5006033;28;19998;-75
2023/09/15 01:21:48;;;;;;;;;;;;;;;-144.99;100.00;52362.50;4994564;28;20409;-75
2023/09/15 01:24:38;;;;;;;;;;;;;;;-144.99;100.00;52323.75;5001963;28;20071;-75
2023/09/15 01:27:22;;;;;;;;;;;;;;;-144.99;100.00;52276.88;5000851;28;20450;-76
2023/09/15 01:29:52;;;;;;;;;;;;;;;-144.99;100.00;52356.38;5002349;28;19976;-76
2023/09/15 01:32:19;;;;;;;;;;;;;;;-144.99;100.00;52327.84;5000262;28;19988;-74
2023/09/15 01:34:47;;;;;;;;;;;;;;;-144.99;100.00;52333.94;5001967;28;19940;-75
2023/09/15 01:37:13;;;;;;;;;;;;;;;-144.99;100.00;52356.38;5007215;28;20060;-74
2023/09/15 01:39:40;;;;;;;;;;;;;;;-144.99;100.00;52348.22;4999418;28;20040;-76
2023/09/15 01:42:06;;;;;;;;;;;;;;;-144.99;100.00;52311.53;5004292;28;20324;-77
2023/09/15 01:44:33;;;;;;;;;;;;;;;-144.99;100.00;52297.25;5001901;28;20048;-74
2023/09/15 01:47:01;;;;;;;;;;;;;;;-144.99;100.00;52331.91;5001768;28;19968;-74
2023/09/15 01:49:27;;;;;;;;;;;;;;;-144.99;100.00;52321.72;5002516;28;19941;-76
2023/09/15 01:51:54;;;;;;;;;;;;;;;-144.99;100.00;52342.09;5002094;28;20003;-75
2023/09/15 01:54:21;;;;;;;;;;;;;;;-144.99;100.00;52321.72;4993370;28;20023;-74
2023/09/15 01:56:49;;;;;;;;;;;;;;;-144.99;100.00;52305.41;5006432;28;20043;-75
2023/09/15 01:59:15;;;;;;;;;;;;;;;-144.99;100.00;52342.09;4997793;28;19949;-76
2023/09/15 02:01:42;;;;;;;;;;;;;;;-144.99;100.00;52321.72;5000334;28;19947;-76
2023/09/15 02:04:10;;;;;;;;;;;;;;;-144.99;100.00;52317.66;4994763;28;20022;-75
2023/09/15 02:06:37;;;;;;;;;;;;;;;-144.99;100.00;52319.69;4998795;28;20043;-76
2023/09/15 02:09:04;;;;;;;;;;;;;;;-144.99;100.00;52327.84;5012678;28;19961;-76
2023/09/15 02:11:30;;;;;;;;;;;;;;;-144.99;100.00;52333.94;4997363;28;19948;-78
2023/09/15 02:13:57;;;;;;;;;;;;;;;-144.99;100.00;52358.41;5004976;28;19942;-75
2023/09/15 02:16:24;;;;;;;;;;;;;;;-144.99;100.00;52350.25;4997178;28;19993;-75
2023/09/15 02:18:50;;;;;;;;;;;;;;;-144.99;100.00;52344.16;4997806;28;20233;-76
2023/09/15 02:21:18;;;;;;;;;;;;;;;-144.99;100.00;52293.19;5010035;28;20162;-77
2023/09/15 02:23:45;;;;;;;;;;;;;;;-144.99;100.00;52348.22;5002532;28;19986;-76
2023/09/15 02:26:11;;;;;;;;;;;;;;;-144.99;100.00;52317.66;5005788;28;20594;-76
2023/09/15 02:28:37;;;;;;;;;;;;;;;-144.99;100.00;52283.00;5006208;28;20039;-76
2023/09/15 02:31:04;;;;;;;;;;;;;;;-144.99;100.00;52378.78;5007833;28;19991;-75
2023/09/15 02:33:31;;;;;;;;;;;;;;;-144.99;100.00;52327.84;4997166;28;20412;-73
2023/09/15 02:35:58;;;;;;;;;;;;;;;-144.99;100.00;52333.94;5002614;28;20417;-74
2023/09/15 02:38:26;;;;;;;;;;;;;;;-144.99;100.00;52325.81;5009061;28;20035;-75
2023/09/15 02:40:52;;;;;;;;;;;;;;;-144.99;100.00;52325.81;5012005;28;19944;-75
2023/09/15 02:43:19;;;;;;;;;;;;;;;-144.99;100.00;52342.09;5003253;28;20036;-77
2023/09/15 02:45:45;;;;;;;;;;;;;;;-144.99;100.00;52317.66;5009214;28;20006;-74
2023/09/15 02:48:12;;;;;;;;;;;;;;;-144.99;100.00;52329.88;4998068;28;20014;-72
2023/09/15 02:50:41;;;;;;;;;;;;;;;-144.99;100.00;52333.94;5005521;28;19946;-75
2023/09/15 02:53:07;;;;;;;;;;;;;;;-144.99;100.00;52321.72;5001364;28;19977;-77
2023/09/15 02:55:37;;;;;;;;;;;;;;;-144.99;100.00;52325.81;5004690;28;20501;-79
2023/09/15 02:58:04;;;;;;;;;;;;;;;-144.99;100.00;52374.72;4995456;28;20004;-73
2023/09/15 03:00:31;;;;;;;;;;;;;;;-144.99;100.00;52331.91;4997822;28;19994;-75
2023/09/15 03:02:57;;;;;;;;;;;;;;;-144.99;100.00;52301.34;4996483;28;19948;-75
2023/09/15 03:05:24;;;;;;;;;;;;;;;-144.99;100.00;52309.50;4997489;28;20044;-75
2023/09/15 03:07:50;;;;;;;;;;;;;;;-144.99;100.00;52338.03;5003448;28;19960;-77
2023/09/15 03:10:16;;;;;;;;;;;;;;;-144.99;100.00;52338.03;5010940;28;20027;-75
2023/09/15 03:12:44;;;;;;;;;;;;;;;-144.99;100.00;52309.50;5007064;28;20038;-74
2023/09/15 03:15:11;;;;;;;;;;;;;;;-144.99;100.00;52362.50;5008494;28;20041;-76
2023/09/15 03:17:38;;;;;;;;;;;;;;;-144.99;100.00;52338.03;5001896;28;19950;-76
2023/09/15 03:20:12;;;;;;;;;;;;;;;-144.99;100.00;52325.81;5017326;28;19956;-77
2023/09/15 03:22:39;;;;;;;;;;;;;;;-144.99;100.00;52305.41;5018378;28;20023;-79
2023/09/15 03:25:06;;;;;;;;;;;;;;;-144.99;100.00;52323.75;5004259;28;19955;-79
2023/09/15 03:27:32;;;;;;;;;;;;;;;-144.99;100.00;52309.50;4994770;28;19976;-77
2023/09/15 03:30:00;;;;;;;;;;;;;;;-144.99;100.00;52350.25;5001564;28;19948;-75
2023/09/15 03:32:26;;;;;;;;;;;;;;;-144.99;100.00;52309.50;4997653;28;19946;-77
2023/09/15 03:34:53;;;;;;;;;;;;;;;-144.99;100.00;52317.66;5000867;28;20474;-77
2023/09/15 03:37:19;;;;;;;;;;;;;;;-144.99;100.00;52315.59;5010387;28;19993;-78
2023/09/15 03:39:46;;;;;;;;;;;;;;;-144.99;100.00;52297.25;5012767;28;20024;-77
2023/09/15 03:42:13;;;;;;;;;;;;;;;-144.99;100.00;52331.91;5002180;28;20010;-77
2023/09/15 03:44:39;;;;;;;;;;;;;;;-144.99;100.00;52333.94;5011877;28;19950;-79
2023/09/15 03:47:08;;;;;;;;;;;;;;;-144.99;100.00;52305.41;5001529;28;20056;-77
2023/09/15 03:49:35;;;;;;;;;;;;;;;-144.99;100.00;52321.72;4997602;28;19961;-76
2023/09/15 03:52:01;;;;;;;;;;;;;;;-144.99;100.00;52358.41;5002295;28;20589;-77
2023/09/15 03:54:28;;;;;;;;;;;;;;;-144.99;100.00;52374.72;5006576;28;20067;-76
2023/09/15 03:56:55;;;;;;;;;;;;;;;-144.99;100.00;52342.09;5000886;28;20427;-77
2023/09/15 03:59:21;;;;;;;;;;;;;;;-144.99;100.00;52333.94;4991207;28;19969;-76
2023/09/15 04:01:48;;;;;;;;;;;;;;;-144.99;100.00;52346.19;4998651;28;20037;-74
2023/09/15 04:04:16;;;;;;;;;;;;;;;-144.99;100.00;52342.09;5009152;28;20045;-77
2023/09/15 04:06:43;;;;;;;;;;;;;;;-144.99;100.00;52287.06;5004400;28;19999;-75
2023/09/15 04:09:10;;;;;;;;;;;;;;;-144.99;100.00;52358.41;4996883;28;20597;-76
2023/09/15 04:11:37;;;;;;;;;;;;;;;-144.99;100.00;52313.56;5010279;28;19950;-76
2023/09/15 04:14:04;;;;;;;;;;;;;;;-144.99;100.00;52319.69;5000368;28;20015;-75
2023/09/15 04:16:30;;;;;;;;;;;;;;;-144.99;100.00;52280.97;5002006;28;19963;-77
2023/09/15 04:18:57;;;;;;;;;;;;;;;-144.99;100.00;52342.09;5000002;28;19989;-78
2023/09/15 04:21:25;;;;;;;;;;;;;;;-144.99;100.00;52317.66;5004740;28;20574;-77
2023/09/15 04:23:51;;;;;;;;;;;;;;;-144.99;100.00;52333.94;4997851;28;19951;-77
2023/09/15 04:26:18;;;;;;;;;;;;;;;-144.99;100.00;52362.50;5003371;28;20051;-76
2023/09/15 04:28:44;;;;;;;;;;;;;;;-144.99;100.00;52329.88;5002214;28;20432;-72
2023/09/15 04:31:11;;;;;;;;;;;;;;;-144.99;100.00;52358.41;5002989;28;19948;-72
2023/09/15 04:33:37;;;;;;;;;;;;;;;-144.99;100.00;52358.41;5003841;28;20010;-72
2023/09/15 04:36:04;;;;;;;;;;;;;;;-144.99;100.00;52291.16;5007531;28;20065;-72
2023/09/15 04:38:32;;;;;;;;;;;;;;;-144.99;100.00;52329.88;5003724;28;20028;-72
2023/09/15 04:40:58;;;;;;;;;;;;;;;-144.99;100.00;52311.53;5010541;28;19969;-72
2023/09/15 04:43:25;;;;;;;;;;;;;;;-144.99;100.00;52342.09;5006641;28;19941;-73
2023/09/15 04:45:51;;;;;;;;;;;;;;;-144.99;100.00;52309.50;5005398;28;20000;-71
2023/09/15 04:48:18;;;;;;;;;;;;;;;-144.99;100.00;52321.72;5001513;28;19978;-71
2023/09/15 04:50:44;;;;;;;;;;;;;;;-144.99;100.00;52352.28;5005715;28;19950;-75
2023/09/15 04:53:10;;;;;;;;;;;;;;;-144.99;100.00;52329.88;4994615;28;19944;-75
2023/09/15 04:55:38;;;;;;;;;;;;;;;-144.99;100.00;52342.09;4997968;28;19996;-72
2023/09/15 04:58:05;;;;;;;;;;;;;;;-144.99;100.00;52313.56;5006737;28;20016;-72
2023/09/15 05:00:34;;;;;;;;;;;;;;;-144.99;100.00;52366.56;5010229;28;19946;-72
2023/09/15 05:03:01;;;;;;;;;;;;;;;-144.99;100.00;52315.59;5011346;28;20322;-75
2023/09/15 05:05:26;;;;;;;;;;;;;;;-144.99;100.00;52336.00;4998558;28;19958;-74
2023/09/15 05:07:53;;;;;;;;;;;;;;;-144.99;100.00;52280.97;5012547;28;19985;-75
2023/09/15 05:10:19;;;;;;;;;;;;;;;-144.99;100.00;52350.25;4998615;28;20066;-75
2023/09/15 05:12:47;;;;;;;;;;;;;;;-144.99;100.00;52321.72;5000825;28;19945;-76
2023/09/15 05:15:13;;;;;;;;;;;;;;;-144.99;100.00;52309.50;4998241;28;19989;-75
2023/09/15 05:17:40;;;;;;;;;;;;;;;-144.99;100.00;52309.50;5005527;28;20442;-75
2023/09/15 05:20:07;;;;;;;;;;;;;;;-144.99;100.00;52303.38;5006029;28;20021;-79
2023/09/15 05:22:34;;;;;;;;;;;;;;;-144.99;100.00;52309.50;4664160;28;9999953;-80
2023/09/15 05:25:04;;;;;;;;;;;;;;;-144.99;100.00;52321.72;5006524;28;19951;-83
2023/09/15 05:27:31;;;;;;;;;;;;;;;-144.99;100.00;52299.31;5007050;28;19952;-82
2023/09/15 05:29:59;;;;;;;;;;;;;;;-144.99;100.00;52315.59;5018167;28;19958;-83
2023/09/15 05:32:25;;;;;;;;;;;;;;;-144.99;100.00;52333.94;5012924;28;20050;-79
2023/09/15 05:34:52;;;;;;;;;;;;;;;-144.99;100.00;52321.72;5012345;28;19973;-80
2023/09/15 05:37:18;;;;;;;;;;;;;;;-144.99;100.00;52297.25;5014377;28;20013;-83
2023/09/15 05:39:45;;;;;;;;;;;;;;;-144.99;100.00;52333.94;5022363;28;19969;-83
2023/09/15 05:42:11;;;;;;;;;;;;;;;-144.99;100.00;52325.81;5013207;28;19960;-85
2023/09/15 05:44:38;;;;;;;;;;;;;;;-144.99;100.00;52327.84;5020480;28;19952;-83
2023/09/15 05:47:06;;;;;;;;;;;;;;;-144.99;100.00;52313.56;5016465;28;19972;-82
2023/09/15 05:49:32;;;;;;;;;;;;;;;-144.99;100.00;52305.41;5011260;28;19965;-83
2023/09/15 05:51:59;;;;;;;;;;;;;;;-144.99;100.00;52268.72;5005422;28;19944;-81
2023/09/15 05:54:26;;;;;;;;;;;;;;;-144.99;100.00;52340.06;5015785;28;19977;-85
2023/09/15 05:56:52;;;;;;;;;;;;;;;-144.99;100.00;52305.41;5018347;28;19964;-85
2023/09/15 05:59:19;;;;;;;;;;;;;;;-144.99;100.00;52305.41;5015829;28;20000;-78
2023/09/15 06:01:47;;;;;;;;;;;;;;;-144.99;100.00;52342.09;5012782;28;20021;-85
2023/09/15 06:04:15;;;;;;;;;;;;;;;-144.99;100.00;52305.41;5019085;28;19936;-83
2023/09/15 06:06:41;;;;;;;;;;;;;;;-144.99;100.00;52331.91;5035736;28;19951;-82
2023/09/15 06:09:09;;;;;;;;;;;;;;;-144.99;100.00;52309.50;5030274;28;19965;-83
2023/09/15 06:11:35;;;;;;;;;;;;;;;-144.99;100.00;52293.19;5023813;28;20853;-82
2023/09/15 06:14:02;;;;;;;;;;;;;;;-144.99;100.00;52295.22;5017537;28;20014;-83
2023/09/15 06:16:28;;;;;;;;;;;;;;;-144.99;100.00;52295.22;5008225;28;19968;-83
2023/09/15 06:18:55;;;;;;;;;;;;;;;-144.99;100.00;52305.41;5011877;28;19999;-80
2023/09/15 06:21:23;;;;;;;;;;;;;;;-144.99;100.00;52268.72;5012419;28;19980;-83
2023/09/15 06:23:49;;;;;;;;;;;;;;;-144.99;100.00;52285.03;5012225;28;19966;-81
2023/09/15 06:26:16;;;;;;;;;;;;;;;-144.99;100.00;52321.72;5005362;28;20014;-75
2023/09/15 06:28:42;;;;;;;;;;;;;;;-144.99;100.00;52301.34;5001534;28;20004;-78
2023/09/15 06:31:09;;;;;;;;;;;;;;;-144.99;100.00;52256.50;5001522;28;20037;-78
2023/09/15 06:33:35;;;;;;;;;;;;;;;-144.99;100.00;52260.56;5015194;28;19949;-80
2023/09/15 06:36:04;;;;;;;;;;;;;;;-144.99;100.00;52293.19;5003306;28;20005;-79
2023/09/15 06:38:31;;;;;;;;;;;;;;;-144.99;100.00;52280.97;5001350;28;20363;-78
2023/09/15 06:40:58;;;;;;;;;;;;;;;-144.99;100.00;52313.56;5004930;28;19979;-80
2023/09/15 06:43:24;;;;;;;;;;;;;;;-144.99;100.00;52280.97;5001002;28;19958;-78
2023/09/15 06:45:51;;;;;;;;;;;;;;;-144.99;100.00;52280.97;5008702;28;19961;-76
2023/09/15 06:48:17;;;;;;;;;;;;;;;-144.99;100.00;52293.19;4655937;28;10000586;-77
2023/09/15 06:50:44;;;;;;;;;;;;;;;-144.99;100.00;52283.00;4997355;28;19988;-74
2023/09/15 06:53:12;;;;;;;;;;;;;;;-144.99;100.00;52313.56;5000444;28;19950;-79
2023/09/15 06:55:40;;;;;;;;;;;;;;;-144.99;100.00;52313.56;4999181;28;20018;-78
2023/09/15 06:58:06;;;;;;;;;;;;;;;-144.99;100.00;52293.19;5008267;28;19998;-79
2023/09/15 07:00:33;;;;;;;;;;;;;;;-144.99;100.00;52289.13;5006567;28;20004;-77
2023/09/15 07:02:59;;;;;;;;;;;;;;;-144.99;100.00;52289.13;5003576;28;20033;-78
2023/09/15 07:05:26;;;;;;;;;;;;;;;-144.99;100.00;52268.72;5013017;28;19960;-77
2023/09/15 07:07:52;;;;;;;;;;;;;;;-144.99;100.00;52289.13;5008082;28;20014;-78
2023/09/15 07:10:19;;;;;;;;;;;;;;;-144.99;100.00;52285.03;4999261;28;19998;-77
2023/09/15 07:12:46;;;;;;;;;;;;;;;-144.99;100.00;52264.66;5002071;28;20687;-76
2023/09/15 07:15:13;;;;;;;;;;;;;;;-144.99;100.00;52268.72;4994191;28;19995;-76
2023/09/15 07:17:40;;;;;;;;;;;;;;;-144.99;100.00;52325.81;4994003;28;20007;-73
2023/09/15 07:20:07;;;;;;;;;;;;;;;-144.99;100.00;52240.19;4997146;28;20052;-71
2023/09/15 07:22:33;;;;;;;;;;;;;;;-144.99;99.52;52264.66;5005040;28;19953;-74
2023/09/15 07:25:00;;;;;;;;;;;;;;;-144.99;99.81;52248.34;4995810;28;19950;-74
2023/09/15 07:27:26;;;;;;;;;;;;;;;-144.99;99.69;52264.66;5000721;28;20415;-73
2023/09/15 07:29:54;;;;;;;;;;;;;;;-144.99;98.79;52280.97;4997210;28;20049;-73
2023/09/15 07:32:21;;;;;;;;;;;;;;;-144.99;98.17;52244.28;5003888;28;19992;-71
2023/09/15 07:34:48;;;;;;;;;;;;;;;-144.99;97.62;52280.97;5002697;28;20042;-77
2023/09/15 07:37:15;;;;;;;;;;;;;;;-144.99;96.02;52266.69;5009858;28;19989;-80
2023/09/15 07:39:41;;;;;;;;;;;;;;;-144.99;96.48;52252.44;5012333;28;20053;-80
2023/09/15 07:42:08;;;;;;;;;;;;;;;-144.99;96.57;52248.34;4999751;28;20041;-78
2023/09/15 07:44:35;;;;;;;;;;;;;;;-144.99;95.67;52248.34;5007861;28;19950;-80
2023/09/15 07:47:04;;;;;;;;;;;;;;;-144.99;94.74;52240.19;5000924;28;19967;-77
2023/09/15 07:49:30;;;;;;;;;;;;;;;-144.99;95.28;52232.03;5004664;28;19965;-77
2023/09/15 07:51:57;;;;;;;;;;;;;;;-144.99;93.96;52227.97;5000865;28;19992;-79
2023/09/15 07:54:24;;;;;;;;;;;;;;;-144.99;93.24;52219.81;4992729;28;20060;-77
2023/09/15 07:56:50;;;;;;;;;;;;;;;-144.99;92.50;52238.16;5005651;28;19962;-79
2023/09/15 07:59:17;;;;;;;;;;;;;;;-144.99;90.65;52244.28;4993648;28;20075;-78
2023/09/15 08:01:43;;;;;;;;;;;;;;;-144.99;90.83;52215.75;5002118;28;20496;-79
2023/09/15 08:04:12;;;;;;;;;;;;;;;-144.99;89.09;52264.66;4991144;28;20777;-78
2023/09/15 08:06:38;;;;;;;;;;;;;;;-144.99;89.85;52252.44;5005222;28;19979;-78
2023/09/15 08:09:05;;;;;;;;;;;;;;;-144.99;90.33;52236.13;5032650;28;19951;-77
2023/09/15 08:11:34;;;;;;;;;;;;;;;-144.99;88.82;52225.94;5031806;28;19941;-77
2023/09/15 08:14:00;;;;;;;;;;;;;;;-144.99;89.04;52215.75;5023085;28;19978;-77
2023/09/15 08:16:27;;;;;;;;;;;;;;;-144.99;88.37;52244.28;5028487;28;19949;-78
2023/09/15 08:18:53;;;;;;;;;;;;;;;-144.99;87.24;52211.66;5015529;28;19969;-77
2023/09/15 08:21:21;;;;;;;;;;;;;;;-144.99;85.01;52215.75;5027702;28;19962;-78
2023/09/15 08:23:48;;;;;;;;;;;;;;;-144.99;84.01;52215.75;5015171;28;20100;-78
2023/09/15 08:26:14;;;;;;;;;;;;;;;-144.99;83.87;52240.19;5020774;28;20104;-78
2023/09/15 08:28:41;;;;;;;;;;;;;;;-144.99;81.90;52230.00;5019315;28;19960;-79
2023/09/15 08:31:08;;;;;;;;;;;;;;;-144.99;80.82;52238.16;5018303;28;19966;-78
2023/09/15 08:33:35;;;;;;;;;;;;;;;-144.99;79.74;52211.66;5020456;28;20003;-78
2023/09/15 08:36:03;;;;;;;;;;;;;;;-144.99;79.67;52215.75;5010827;28;20538;-79
2023/09/15 08:38:32;;;;;;;;;;;;;;;-144.99;79.79;52240.19;5016155;28;19948;-77
2023/09/15 08:41:02;;;;;;;;;;;;;;;-144.99;79.06;52215.75;5016012;28;19981;-78
2023/09/15 08:43:29;;;;;;;;;;;;;;;-144.99;78.36;52215.75;5011679;28;19950;-79
2023/09/15 08:45:56;;;;;;;;;;;;;;;-144.99;77.39;52187.19;5013975;28;19974;-78
2023/09/15 08:48:25;;;;;;;;;;;;;;;-144.99;77.10;52195.34;5014367;28;19951;-79
2023/09/15 08:50:52;;;;;;;;;;;;;;;-144.99;77.55;52230.00;4999278;28;20007;-77
2023/09/15 08:53:18;;;;;;;;;;;;;;;-144.99;76.24;52191.28;5016146;28;21234;-76
2023/09/15 08:55:46;;;;;;;;;;;;;;;-144.99;76.36;52187.19;5007668;28;19992;-78
2023/09/15 08:58:13;;;;;;;;;;;;;;;-144.99;76.48;52223.88;5004426;28;19953;-77
2023/09/15 09:00:40;;;;;;;;;;;;;;;-144.99;76.09;52219.81;5010139;28;20006;-77
2023/09/15 09:03:06;;;;;;;;;;;;;;;-144.99;76.04;52211.66;5010540;28;20036;-79
2023/09/15 09:05:33;;;;;;;;;;;;;;;-144.99;74.64;52183.13;5010431;28;20034;-76
2023/09/15 09:08:00;;;;;;;;;;;;;;;-144.99;74.36;52174.97;4997744;28;19943;-75
2023/09/15 09:10:27;;;;;;;;;;;;;;;-144.99;74.16;52207.59;4993271;28;20080;-76
2023/09/15 09:12:55;;;;;;;;;;;;;;;-144.99;73.70;52215.75;5000734;28;20041;-77
2023/09/15 09:15:22;;;;;;;;;;;;;;;-144.99;73.15;52187.19;5002384;28;19993;-77
2023/09/15 09:17:48;;;;;;;;;;;;;;;-144.99;72.06;52179.06;5003223;28;19942;-78
2023/09/15 09:20:25;;;;;;;;;;;;;;;-144.99;71.01;52195.34;4996942;28;20032;-78
2023/09/15 09:22:52;;;;;;;;;;;;;;;-144.99;70.60;52174.97;5001785;28;19979;-78
2023/09/15 09:25:25;;;;;;;;;;;;;;;-144.99;70.17;52170.91;5004216;28;19969;-77
2023/09/15 09:27:51;;;;;;;;;;;;;;;-144.99;70.53;52191.28;4998247;28;20446;-75
2023/09/15 09:30:19;;;;;;;;;;;;;;;-144.99;71.18;52183.13;4999491;28;20717;-76
2023/09/15 09:32:47;;;;;;;;;;;;;;;-144.99;70.78;52215.75;4999913;28;19952;-77
2023/09/15 09:35:14;;;;;;;;;;;;;;;-144.99;70.78;52195.34;4993964;28;20046;-78
2023/09/15 09:37:40;;;;;;;;;;;;;;;-144.99;69.90;52179.06;5002465;28;20742;-77
2023/09/15 09:40:08;;;;;;;;;;;;;;;-144.99;68.83;52160.72;4990678;28;20381;-77
2023/09/15 09:42:35;;;;;;;;;;;;;;;-144.99;68.70;52179.06;4995355;28;19946;-77
2023/09/15 09:45:03;;;;;;;;;;;;;;;-144.99;68.29;52189.25;4995130;28;19980;-76
2023/09/15 09:47:31;;;;;;;;;;;;;;;-144.99;67.70;52150.53;4997972;28;19959;-75
2023/09/15 09:49:58;;;;;;;;;;;;;;;-144.99;67.63;52158.66;4997489;28;19996;-73
2023/09/15 09:52:24;;;;;;;;;;;;;;;-144.99;66.98;52134.22;4999435;28;19955;-73
2023/09/15 09:54:51;;;;;;;;;;;;;;;-144.99;66.96;52121.97;5009140;28;19994;-76
2023/09/15 09:57:17;;;;;;;;;;;;;;;-144.99;66.15;52146.44;5003938;28;20440;-74
2023/09/15 09:59:44;;;;;;;;;;;;;;;-144.99;65.71;52170.91;5004270;28;19945;-82
2023/09/15 10:02:11;;;;;;;;;;;;;;;-144.99;65.45;52146.44;5004060;28;19982;-78
2023/09/15 10:04:39;;;;;;;;;;;;;;;-144.99;65.19;52121.97;5004007;28;19944;-76
2023/09/15 10:07:06;;;;;;;;;;;;;;;-144.99;65.10;52166.81;5015119;28;20001;-79
2023/09/15 10:09:33;;;;;;;;;;;;;;;-144.99;65.38;52109.75;5016394;28;19989;-78
2023/09/15 10:12:00;;;;;;;;;;;;;;;-144.99;65.22;52105.69;5010378;28;20524;-80
2023/09/15 10:14:27;;;;;;;;;;;;;;;-144.99;64.98;52174.97;5014974;28;19942;-80
2023/09/15 10:16:54;;;;;;;;;;;;;;;-144.99;64.75;52134.22;5011174;28;19961;-81
2023/09/15 10:19:21;;;;;;;;;;;;;;;-144.99;64.28;52138.28;5008614;28;19946;-84
2023/09/15 10:21:49;;;;;;;;;;;;;;;-144.99;63.30;52077.16;5018666;28;19946;-79
2023/09/15 10:24:16;;;;;;;;;;;;;;;-144.99;63.01;52077.16;5010670;28;19950;-82
2023/09/15 10:26:44;;;;;;;;;;;;;;;-144.99;62.99;52093.44;5013372;28;19957;-79
2023/09/15 10:29:12;;;;;;;;;;;;;;;-144.99;62.88;52101.59;5016939;28;19951;-80
2023/09/15 10:31:41;;;;;;;;;;;;;;;-144.99;62.74;52089.38;5013568;28;19963;-84
2023/09/15 10:34:07;;;;;;;;;;;;;;;-144.99;62.60;52060.84;5010050;28;19948;-82
2023/09/15 10:36:34;;;;;;;;;;;;;;;-144.99;63.10;52101.59;5003669;28;19963;-79
2023/09/15 10:39:13;;;;;;;;;;;;;;;-144.99;62.51;52077.16;5009884;28;19985;-78
2023/09/15 10:41:39;;;;;;;;;;;;;;;-144.99;62.31;52036.38;5004335;28;20156;-79
2023/09/15 10:44:06;;;;;;;;;;;;;;;-144.99;61.95;52038.44;5016310;28;19948;-79
2023/09/15 10:46:36;;;;;;;;;;;;;;;-144.99;61.54;52016.00;5018338;28;19973;-83
2023/09/15 10:49:13;;;;;;;;;;;;;;;-144.99;61.37;52036.38;5009909;28;19950;-83
2023/09/15 10:51:50;;;;;;;;;;;;;;;-144.99;60.59;52032.31;5017426;28;19963;-83
2023/09/15 10:54:19;;;;;;;;;;;;;;;-144.99;60.24;52009.91;5007324;28;19947;-81
2023/09/15 10:56:47;;;;;;;;;;;;;;;-144.99;60.66;52134.22;5012827;28;19964;-79
2023/09/15 10:59:14;;;;;;;;;;;;;;;-144.99;60.89;52040.47;5010147;28;19945;-85
2023/09/15 11:01:43;;;;;;;;;;;;;;;-144.99;62.36;52032.31;5008931;28;19948;-83
2023/09/15 11:04:11;;;;;;;;;;;;;;;-144.99;61.85;52040.47;5005839;28;19955;-78
2023/09/15 11:06:38;;;;;;;;;;;;;;;-144.99;61.69;52056.78;5002002;28;20547;-78
2023/09/15 11:09:05;;;;;;;;;;;;;;;-144.99;62.08;52040.47;5005485;28;19995;-77
2023/09/15 11:11:33;;;;;;;;;;;;;;;-144.99;62.15;52024.16;4997303;28;19963;-79
2023/09/15 11:14:01;;;;;;;;;;;;;;;-144.99;61.71;52007.84;4989394;28;19939;-78
2023/09/15 11:16:28;;;;;;;;;;;;;;;-144.99;61.79;52016.00;5000997;28;19966;-79
2023/09/15 11:18:56;;;;;;;;;;;;;;;-144.99;61.66;52052.69;5001879;28;20418;-78
2023/09/15 11:21:23;;;;;;;;;;;;;;;-144.99;61.15;52024.16;4995169;28;19948;-80
2023/09/15 11:23:50;;;;;;;;;;;;;;;-144.99;61.23;52003.78;4997535;28;19947;-79
2023/09/15 11:26:17;;;;;;;;;;;;;;;-144.99;61.53;51989.50;4995828;28;19969;-80
2023/09/15 11:28:45;;;;;;;;;;;;;;;-144.99;61.41;51991.56;4996112;28;20006;-79
2023/09/15 11:31:12;;;;;;;;;;;;;;;-144.99;61.95;52032.31;5005604;28;20009;-79
2023/09/15 11:33:41;;;;;;;;;;;;;;;-144.99;61.31;51981.38;5000478;28;19953;-79
2023/09/15 11:36:08;;;;;;;;;;;;;;;-144.99;60.91;52016.00;4997813;28;20443;-78
2023/09/15 11:38:34;;;;;;;;;;;;;;;-144.99;61.03;52016.00;4997768;28;19948;-79
2023/09/15 11:41:01;;;;;;;;;;;;;;;-144.99;60.87;52009.91;4992433;28;19988;-79
2023/09/15 11:43:27;;;;;;;;;;;;;;;-144.99;60.41;52007.84;4995296;28;20130;-79
2023/09/15 11:45:55;;;;;;;;;;;;;;;-144.99;60.57;51991.56;4997615;28;19977;-79
2023/09/15 11:48:23;;;;;;;;;;;;;;;-144.99;60.37;51987.47;5008633;28;19946;-79
2023/09/15 11:50:49;;;;;;;;;;;;;;;-144.99;60.33;51987.47;5005211;28;20511;-79
2023/09/15 11:53:23;;;;;;;;;;;;;;;-144.99;60.62;52044.53;5006782;28;20035;-79
2023/09/15 11:55:51;;;;;;;;;;;;;;;-144.99;60.43;52016.00;5007685;28;19969;-80
2023/09/15 11:58:18;;;;;;;;;;;;;;;-144.99;60.84;52134.22;5006031;28;19951;-79
2023/09/15 12:00:45;;;;;;;;;;;;;;;-144.99;60.38;52003.78;4998884;28;19945;-79
2023/09/15 12:03:13;;;;;;;;;;;;;;;-144.99;59.74;51991.56;4994534;28;20384;-82
2023/09/15 12:05:40;;;;;;;;;;;;;;;-144.99;59.76;52011.94;5000043;28;19966;-81
2023/09/15 12:08:06;;;;;;;;;;;;;;;-144.99;59.65;52003.78;5007576;28;20003;-77
2023/09/15 12:10:33;;;;;;;;;;;;;;;-144.99;59.52;51969.13;5003906;28;20016;-79
2023/09/15 12:12:59;;;;;;;;;;;;;;;-144.99;59.37;51975.25;4997782;28;19974;-81
2023/09/15 12:15:27;;;;;;;;;;;;;;;-144.99;59.40;52003.78;5006322;28;20004;-78
2023/09/15 12:17:53;;;;;;;;;;;;;;;-144.99;59.57;52005.81;4991884;28;19984;-79
2023/09/15 12:20:24;;;;;;;;;;;;;;;-144.99;59.46;52011.94;5000229;28;19949;-78